Time;durP1;ratioP1;P1;durP2;ratioP2;P2;SDS_P1;SDS_P2;PMS_P1;PMS_P2;Temp;Humidity;BMP_temperature;BMP_pressure;BME280_temperature;BME280_humidity;BME280_pressure;Samples;Min_cycle;Max_cycle;Signal;HPM_P1;HPM_P2
2022/10/23 00:01:45;;;;;;;26.90;15.78;;;;;;;9.81;95.12;99545.41;1681160;84;21658;-74
2022/10/23 00:04:18;;;;;;;25.15;16.00;;;;;;;9.82;94.96;99543.02;1700204;83;21574;-80
2022/10/23 00:06:45;;;;;;;25.80;15.43;;;;;;;9.84;94.94;99543.55;1668973;85;21094;-81
2022/10/23 00:09:16;;;;;;;21.12;15.25;;;;;;;9.89;94.94;99545.78;1660947;84;21000;-76
2022/10/23 00:11:49;;;;;;;22.27;14.90;;;;;;;9.92;94.80;99542.63;1660046;83;21088;-80
2022/10/23 00:14:20;;;;;;;18.67;13.15;;;;;;;9.98;94.67;99539.44;1667481;84;21352;-85
2022/10/23 00:16:46;;;;;;;18.65;15.78;;;;;;;10.01;94.54;99543.81;1652498;85;21030;-85
2022/10/23 00:19:15;;;;;;;23.85;16.32;;;;;;;9.99;94.22;99545.92;1645740;87;21646;-83
2022/10/23 00:21:42;;;;;;;21.10;14.95;;;;;;;9.97;94.34;99546.72;1666362;84;21039;-81
2022/10/23 00:24:09;;;;;;;23.92;14.95;;;;;;;9.93;94.27;99539.38;1671767;84;21201;-81
2022/10/23 00:26:39;;;;;;;19.57;14.60;;;;;;;9.89;94.39;99540.41;1697327;84;21561;-82
2022/10/23 00:29:05;;;;;;;26.45;16.32;;;;;;;9.90;94.70;99542.57;1669010;84;21035;-79
2022/10/23 00:31:32;;;;;;;22.10;15.85;;;;;;;9.92;94.75;99539.94;1645372;85;21028;-74
2022/10/23 00:34:00;;;;;;;24.72;15.98;;;;;;;9.93;94.86;99542.06;1653454;85;21047;-74
2022/10/23 00:36:27;;;;;;;23.07;16.50;;;;;;;9.93;94.84;99540.72;1667524;84;21496;-76
2022/10/23 00:38:55;;;;;;;20.55;16.77;;;;;;;9.91;94.95;99540.98;1684034;83;21013;-77
2022/10/23 00:41:27;;;;;;;25.37;15.32;;;;;;;9.86;94.96;99543.61;1654203;83;21133;-77
2022/10/23 00:44:09;;;;;;;22.85;17.37;;;;;;;9.82;95.11;99540.33;1700595;83;21625;-79
2022/10/23 00:46:38;;;;;;;19.10;14.47;;;;;;;9.81;95.42;99541.38;1678758;84;21105;-78
2022/10/23 00:49:05;;;;;;;23.83;17.25;;;;;;;9.79;95.63;99528.72;1664301;84;21597;-73
2022/10/23 00:51:39;;;;;;;20.37;16.97;;;;;;;9.77;95.87;99538.38;1675682;85;21036;-71
2022/10/23 00:54:05;;;;;;;27.05;17.48;;;;;;;9.78;96.11;99538.67;1657949;85;21128;-72
2022/10/23 00:56:35;;;;;;;30.97;17.52;;;;;;;9.79;96.27;99541.62;1668527;85;21071;-72
2022/10/23 00:59:04;;;;;;;21.82;15.80;;;;;;;9.79;96.32;99538.93;1694886;83;21523;-90
2022/10/23 01:01:30;;;;;;;25.88;16.57;;;;;;;9.77;96.28;99526.83;1691921;83;21288;-85
2022/10/23 01:03:59;;;;;;;23.95;18.10;;;;;;;9.72;96.40;99526.23;1685263;83;20943;-85
2022/10/23 01:06:36;;;;;;;20.80;16.15;;;;;;;9.68;96.53;99529.66;1694795;83;21022;-83
2022/10/23 01:09:46;;;;;;;25.80;18.52;;;;;;;9.61;96.85;99522.58;1674323;85;21026;-87
2022/10/23 01:12:45;;;;;;;22.95;18.00;;;;;;;9.57;97.20;99520.12;1696931;83;21077;-83
2022/10/23 01:15:26;;;;;;;30.02;20.02;;;;;;;9.59;97.46;99511.27;1668181;85;21006;-78
2022/10/23 01:18:13;;;;;;;25.43;19.48;;;;;;;9.58;97.69;99511.54;1671843;84;21099;-75
2022/10/23 01:20:53;;;;;;;30.05;21.33;;;;;;;9.59;97.94;99507.23;1631095;85;21106;-72
2022/10/23 01:23:52;;;;;;;28.65;22.02;;;;;;;9.61;98.14;99509.69;1676905;84;21125;-71
2022/10/23 01:26:56;;;;;;;27.42;19.75;;;;;;;9.58;98.24;99500.27;1674327;85;21096;-72
2022/10/23 01:29:40;;;;;;;26.50;18.85;;;;;;;9.53;98.40;99494.83;1673981;85;21803;-76
2022/10/23 01:32:18;;;;;;;28.87;20.05;;;;;;;9.43;98.68;99493.87;1674521;84;21043;-77
2022/10/23 01:34:55;;;;;;;28.60;20.88;;;;;;;9.37;99.18;99492.16;1684914;84;20978;-74
2022/10/23 01:38:10;;;;;;;24.45;19.37;;;;;;;9.38;99.64;99487.09;1683585;84;21094;-73
2022/10/23 01:40:56;;;;;;;27.67;21.60;;;;;;;9.39;99.84;99488.19;1664110;85;21068;-76
2022/10/23 01:43:31;;;;;;;31.80;23.95;;;;;;;9.32;100.00;99484.03;1682168;83;21095;-77
2022/10/23 01:46:02;;;;;;;24.52;20.05;;;;;;;9.22;100.00;99482.02;1676408;85;21099;-74
2022/10/23 01:48:29;;;;;;;27.85;21.30;;;;;;;9.17;100.00;99478.73;1674594;85;21026;-74
2022/10/23 01:50:59;;;;;;;22.90;17.65;;;;;;;9.15;100.00;99475.50;1654129;85;21141;-72
2022/10/23 01:53:29;;;;;;;26.02;20.10;;;;;;;9.14;100.00;99475.73;1670833;84;20964;-70
2022/10/23 01:55:59;;;;;;;24.95;20.17;;;;;;;9.10;100.00;99474.61;1670556;85;21164;-73
2022/10/23 01:58:26;;;;;;;27.95;22.85;;;;;;;9.13;100.00;99465.53;1678104;84;22041;-73
2022/10/23 02:00:55;;;;;;;34.60;20.95;;;;;;;9.11;100.00;99468.97;1683700;84;21695;-74
2022/10/23 02:03:22;;;;;;;29.48;24.00;;;;;;;9.12;100.00;99477.31;1678640;84;21065;-72
2022/10/23 02:05:48;;;;;;;27.98;21.57;;;;;;;9.11;100.00;99473.00;1672075;85;21026;-73
2022/10/23 02:08:14;;;;;;;25.05;21.77;;;;;;;9.19;100.00;99477.16;1659371;86;21187;-72
2022/10/23 02:11:04;;;;;;;29.75;22.37;;;;;;;9.25;100.00;99468.66;1703086;83;21409;-72
2022/10/23 02:13:46;;;;;;;30.80;21.25;;;;;;;9.26;100.00;99468.91;1707480;83;20971;-75
2022/10/23 02:16:21;;;;;;;28.10;21.97;;;;;;;9.30;100.00;99474.09;1685145;84;20971;-71
2022/10/23 02:19:02;;;;;;;33.85;22.42;;;;;;;9.34;100.00;99472.53;1660111;85;21048;-71
2022/10/23 02:21:47;;;;;;;25.77;22.98;;;;;;;9.36;100.00;99464.51;1685941;84;21564;-74
2022/10/23 02:24:18;;;;;;;29.27;21.65;;;;;;;9.30;100.00;99469.55;1655284;85;20953;-70
2022/10/23 02:26:53;;;;;;;29.92;22.25;;;;;;;9.17;100.00;99462.63;1672759;85;21029;-71
2022/10/23 02:29:34;;;;;;;29.12;20.45;;;;;;;9.09;100.00;99465.73;1626402;85;21131;-73
2022/10/23 02:32:01;;;;;;;23.45;19.52;;;;;;;9.07;100.00;99467.03;1680707;84;21051;-71
2022/10/23 02:34:27;;;;;;;29.10;20.20;;;;;;;8.99;100.00;99469.61;1673075;84;21067;-72
2022/10/23 02:36:54;;;;;;;26.73;21.68;;;;;;;8.92;100.00;99462.24;1664958;84;21036;-74
2022/10/23 02:39:21;;;;;;;24.70;19.77;;;;;;;8.92;100.00;99460.90;1656460;85;21113;-76
2022/10/23 02:42:14;;;;;;;24.23;19.07;;;;;;;8.99;100.00;99454.04;1689299;84;21102;-72
2022/10/23 02:45:18;;;;;;;28.62;21.20;;;;;;;9.03;100.00;99457.33;1655855;86;21813;-75
2022/10/23 02:48:25;;;;;;;24.60;19.48;;;;;;;8.94;100.00;99452.09;1654675;84;21094;-75
2022/10/23 02:51:23;;;;;;;27.32;20.85;;;;;;;8.91;100.00;99451.25;1663850;85;21010;-75
2022/10/23 02:54:01;;;;;;;24.15;21.07;;;;;;;8.88;100.00;99453.06;1679263;84;21004;-76
2022/10/23 02:56:56;;;;;;;26.30;19.82;;;;;;;8.84;100.00;99454.61;1682063;84;21081;-79
2022/10/23 02:59:30;;;;;;;31.97;23.67;;;;;;;8.82;100.00;99454.06;1683038;84;21075;-76
2022/10/23 03:02:20;;;;;;;25.37;20.70;;;;;;;8.83;100.00;99449.48;1688204;84;21265;-76
2022/10/23 03:04:48;;;;;;;24.65;21.07;;;;;;;8.85;100.00;99452.75;1654011;86;21008;-75
2022/10/23 03:07:17;;;;;;;21.80;18.37;;;;;;;8.91;100.00;99459.82;1658704;86;20983;-76
2022/10/23 03:09:45;;;;;;;20.77;18.57;;;;;;;9.00;100.00;99464.53;1668558;84;20985;-74
2022/10/23 03:12:16;;;;;;;25.55;21.77;;;;;;;9.06;100.00;99460.06;1684072;84;20923;-79
2022/10/23 03:14:44;;;;;;;23.20;19.17;;;;;;;9.03;100.00;99467.23;1652305;84;20991;-76
2022/10/23 03:17:10;;;;;;;23.92;19.35;;;;;;;9.05;100.00;99461.93;1671144;84;21139;-78
2022/10/23 03:19:36;;;;;;;21.12;16.62;;;;;;;9.10;100.00;99462.53;1664844;84;21162;-77
2022/10/23 03:22:05;;;;;;;26.07;20.88;;;;;;;9.13;100.00;99463.38;1651896;86;21601;-78
2022/10/23 03:24:32;;;;;;;27.42;19.62;;;;;;;9.14;100.00;99463.14;1671256;85;21056;-79
2022/10/23 03:26:59;;;;;;;29.15;21.30;;;;;;;9.20;100.00;99462.69;1682960;84;21649;-76
2022/10/23 03:29:29;;;;;;;24.25;20.15;;;;;;;9.26;100.00;99463.02;1672523;84;21107;-76
2022/10/23 03:31:57;;;;;;;23.75;19.75;;;;;;;9.34;100.00;99459.13;1674081;85;21085;-75
2022/10/23 03:34:24;;;;;;;28.83;21.87;;;;;;;9.35;100.00;99456.73;1672269;84;21019;-75
2022/10/23 03:36:52;;;;;;;25.10;20.95;;;;;;;9.32;100.00;99455.86;1677161;84;21108;-74
2022/10/23 03:39:19;;;;;;;25.77;21.33;;;;;;;9.30;100.00;99457.47;1656708;84;21903;-75
2022/10/23 03:41:47;;;;;;;25.75;20.57;;;;;;;9.31;100.00;99454.23;1647023;86;21120;-74
2022/10/23 03:44:15;;;;;;;28.92;21.55;;;;;;;9.31;100.00;99452.36;1626309;86;21104;-75
2022/10/23 03:46:44;;;;;;;22.22;18.80;;;;;;;9.30;100.00;99449.42;1663739;85;21037;-75
2022/10/23 03:49:10;;;;;;;32.20;20.12;;;;;;;9.32;100.00;99453.98;1668259;85;21094;-76
2022/10/23 03:51:40;;;;;;;33.85;21.07;;;;;;;9.34;100.00;99450.55;1685626;84;21213;-77
2022/10/23 03:54:05;;;;;;;23.07;20.68;;;;;;;9.35;100.00;99445.44;1685373;84;21579;-74
2022/10/23 03:56:32;;;;;;;25.23;20.77;;;;;;;9.39;100.00;99449.27;1686002;84;21150;-76
2022/10/23 03:58:59;;;;;;;24.23;21.62;;;;;;;9.45;100.00;99448.78;1680184;84;20995;-74
2022/10/23 04:01:26;;;;;;;24.57;20.95;;;;;;;9.49;100.00;99449.94;1675397;85;21094;-74
2022/10/23 04:03:54;;;;;;;22.37;20.08;;;;;;;9.49;100.00;99448.59;1674341;84;22109;-73
2022/10/23 04:06:21;;;;;;;23.00;20.60;;;;;;;9.50;100.00;99444.30;1675884;85;21027;-77
2022/10/23 04:08:48;;;;;;;21.40;18.82;;;;;;;9.52;100.00;99439.51;1676118;84;20959;-74
2022/10/23 04:11:16;;;;;;;23.42;19.15;;;;;;;9.52;100.00;99435.48;1686625;84;21073;-76
2022/10/23 04:13:47;;;;;;;21.60;18.40;;;;;;;9.46;100.00;99437.80;1682753;84;21034;-74
2022/10/23 04:16:15;;;;;;;20.52;18.35;;;;;;;9.36;100.00;99426.12;1686104;84;20983;-75
2022/10/23 04:18:43;;;;;;;24.85;20.40;;;;;;;9.34;100.00;99433.09;1684216;84;21057;-76
2022/10/23 04:21:10;;;;;;;23.40;19.15;;;;;;;9.40;100.00;99430.73;1687382;85;21045;-74
2022/10/23 04:23:39;;;;;;;26.10;19.42;;;;;;;9.46;100.00;99431.63;1671229;84;20978;-77
2022/10/23 04:26:08;;;;;;;26.87;21.23;;;;;;;9.44;100.00;99431.89;1673728;84;21113;-74
2022/10/23 04:28:34;;;;;;;21.00;18.35;;;;;;;9.45;100.00;99426.78;1681131;84;21109;-74
2022/10/23 04:31:01;;;;;;;21.70;19.45;;;;;;;9.46;100.00;99422.23;1685033;85;21053;-74
2022/10/23 04:33:27;;;;;;;22.22;19.87;;;;;;;9.44;100.00;99410.42;1653361;85;21082;-72
2022/10/23 04:35:54;;;;;;;24.77;19.73;;;;;;;9.42;100.00;99420.58;1675380;84;21071;-73
2022/10/23 04:38:20;;;;;;;26.85;19.80;;;;;;;9.40;100.00;99425.38;1663454;85;21092;-71
2022/10/23 04:40:48;;;;;;;22.65;19.95;;;;;;;9.42;100.00;99424.61;1683405;84;21142;-72
2022/10/23 04:43:16;;;;;;;25.68;18.37;;;;;;;9.42;100.00;99425.14;1686970;84;21614;-75
2022/10/23 04:45:43;;;;;;;22.95;20.02;;;;;;;9.44;100.00;99426.53;1680794;84;21577;-75
2022/10/23 04:48:10;;;;;;;23.12;19.23;;;;;;;9.44;100.00;99426.53;1658552;85;21114;-75
2022/10/23 04:50:59;;;;;;;21.77;18.48;;;;;;;9.43;100.00;99423.55;1631281;87;21098;-75
2022/10/23 04:53:28;;;;;;;18.50;16.52;;;;;;;9.46;100.00;99430.28;1681467;84;21183;-75
2022/10/23 04:55:59;;;;;;;22.17;19.65;;;;;;;9.46;100.00;99426.25;1655847;84;21058;-75
2022/10/23 04:58:28;;;;;;;22.87;19.07;;;;;;;9.40;100.00;99425.93;1673233;84;21168;-75
2022/10/23 05:00:56;;;;;;;23.15;20.62;;;;;;;9.35;100.00;99423.96;1687246;84;21036;-76
2022/10/23 05:03:25;;;;;;;24.95;21.50;;;;;;;9.35;100.00;99423.96;1675458;84;21029;-75
2022/10/23 05:05:53;;;;;;;24.47;19.67;;;;;;;9.38;100.00;99421.33;1645083;86;21061;-75
2022/10/23 05:08:23;;;;;;;23.05;20.55;;;;;;;9.38;100.00;99423.48;1663376;85;22251;-72
2022/10/23 05:11:09;;;;;;;24.07;21.50;;;;;;;9.42;100.00;99423.27;1679878;84;21086;-76
2022/10/23 05:13:37;;;;;;;29.42;21.60;;;;;;;9.46;100.00;99419.55;1675687;84;21642;-73
2022/10/23 05:16:04;;;;;;;23.30;19.77;;;;;;;9.54;100.00;99433.34;1680862;84;21534;-76
2022/10/23 05:18:41;;;;;;;25.97;21.40;;;;;;;9.61;100.00;99428.61;1682941;85;20973;-74
2022/10/23 05:21:21;;;;;;;25.82;20.00;;;;;;;9.64;100.00;99434.00;1687531;84;21125;-73
2022/10/23 05:23:49;;;;;;;24.43;21.82;;;;;;;9.69;100.00;99432.72;1687794;84;21503;-75
2022/10/23 05:26:17;;;;;;;21.70;19.27;;;;;;;9.74;100.00;99430.63;1687650;84;21120;-74
2022/10/23 05:28:46;;;;;;;24.02;20.02;;;;;;;9.78;100.00;99426.41;1666379;85;21610;-74
2022/10/23 05:31:14;;;;;;;24.98;20.43;;;;;;;9.77;100.00;99430.14;1687485;84;21015;-74
2022/10/23 05:33:42;;;;;;;22.00;17.95;;;;;;;9.77;100.00;99434.17;1684911;84;21026;-75
2022/10/23 05:36:11;;;;;;;22.42;19.40;;;;;;;9.77;100.00;99436.86;1686314;84;21591;-75
2022/10/23 05:38:41;;;;;;;22.77;20.10;;;;;;;9.78;100.00;99433.93;1683807;84;21588;-75
2022/10/23 05:41:09;;;;;;;22.10;18.25;;;;;;;9.80;100.00;99428.29;1684662;84;21061;-76
2022/10/23 05:43:36;;;;;;;21.10;18.45;;;;;;;9.82;100.00;99435.58;1681556;84;21233;-75
2022/10/23 05:46:06;;;;;;;24.57;20.15;;;;;;;9.84;100.00;99431.56;1674802;84;21026;-72
2022/10/23 05:48:33;;;;;;;22.48;19.87;;;;;;;9.87;100.00;99431.08;1677380;84;21329;-74
2022/10/23 05:51:08;;;;;;;23.20;20.72;;;;;;;9.87;100.00;99436.98;1679000;84;21107;-74
2022/10/23 05:53:49;;;;;;;25.40;20.23;;;;;;;9.87;100.00;99434.29;1679932;84;21044;-72
2022/10/23 05:56:18;;;;;;;24.45;19.57;;;;;;;9.84;100.00;99434.25;1663555;85;21616;-75
2022/10/23 05:58:47;;;;;;;21.62;19.40;;;;;;;9.84;100.00;99430.22;1664474;84;21025;-77
2022/10/23 06:01:17;;;;;;;25.70;20.12;;;;;;;9.86;100.00;99424.08;1678002;84;21615;-75
2022/10/23 06:04:00;;;;;;;23.98;19.75;;;;;;;9.83;100.00;99433.17;1682263;84;21056;-77
2022/10/23 06:06:47;;;;;;;21.95;18.10;;;;;;;9.84;100.00;99431.56;1674896;85;20962;-72
2022/10/23 06:09:14;;;;;;;26.17;20.85;;;;;;;9.85;100.00;99433.19;1670282;84;21170;-73
2022/10/23 06:11:42;;;;;;;28.95;21.75;;;;;;;9.87;100.00;99431.61;1686944;84;21084;-75
2022/10/23 06:14:12;;;;;;;26.02;20.77;;;;;;;9.92;100.00;99427.63;1681181;84;20983;-75
2022/10/23 06:16:41;;;;;;;26.33;20.32;;;;;;;9.95;100.00;99431.15;1632928;84;21097;-74
2022/10/23 06:19:10;;;;;;;25.25;20.32;;;;;;;9.99;100.00;99437.11;1658876;85;21072;-76
2022/10/23 06:21:39;;;;;;;20.88;17.70;;;;;;;10.01;100.00;99433.66;1675658;85;21208;-72
2022/10/23 06:24:06;;;;;;;27.05;21.42;;;;;;;10.03;100.00;99432.85;1675372;84;21106;-74
2022/10/23 06:26:36;;;;;;;27.27;21.95;;;;;;;10.04;100.00;99433.66;1673927;85;21043;-77
2022/10/23 06:29:05;;;;;;;25.82;20.77;;;;;;;10.05;100.00;99437.98;1668252;84;21095;-74
2022/10/23 06:31:32;;;;;;;26.68;19.77;;;;;;;10.03;100.00;99444.13;1685462;84;21083;-74
2022/10/23 06:34:02;;;;;;;23.62;19.42;;;;;;;9.96;100.00;99435.47;1685767;84;21160;-73
2022/10/23 06:36:30;;;;;;;22.17;18.92;;;;;;;9.95;100.00;99432.49;1685783;84;21130;-73
2022/10/23 06:38:58;;;;;;;22.13;19.50;;;;;;;9.98;100.00;99431.98;1683454;84;21017;-74
2022/10/23 06:41:27;;;;;;;26.40;22.07;;;;;;;9.99;100.00;99422.33;1668886;84;21029;-76
2022/10/23 06:43:54;;;;;;;26.05;19.07;;;;;;;10.03;100.00;99424.79;1617310;84;21084;-74
2022/10/23 06:46:25;;;;;;;24.98;21.42;;;;;;;10.06;100.00;99417.59;1666835;84;22187;-70
2022/10/23 06:49:08;;;;;;;26.48;20.65;;;;;;;10.08;100.00;99415.97;1676519;83;20968;-73
2022/10/23 06:51:51;;;;;;;25.30;19.73;;;;;;;10.16;100.00;99421.47;1690746;84;21133;-77
2022/10/23 06:54:29;;;;;;;25.70;22.95;;;;;;;10.18;100.00;99422.83;1682896;83;21023;-76
2022/10/23 06:57:11;;;;;;;24.80;20.82;;;;;;;10.21;100.00;99415.62;1679621;84;21102;-75
2022/10/23 06:59:40;;;;;;;25.52;20.30;;;;;;;10.17;100.00;99425.23;1657477;84;21235;-75
2022/10/23 07:02:10;;;;;;;28.87;20.80;;;;;;;10.17;100.00;99428.47;1653270;85;20999;-71
2022/10/23 07:04:40;;;;;;;30.17;20.95;;;;;;;10.19;100.00;99428.48;1678277;84;21114;-76
2022/10/23 07:07:08;;;;;;;26.25;20.30;;;;;;;10.22;100.00;99429.84;1692178;83;21061;-75
2022/10/23 07:09:37;;;;;;;26.37;22.58;;;;;;;10.25;100.00;99420.77;1659907;85;21019;-74
2022/10/23 07:12:07;;;;;;;22.22;19.73;;;;;;;10.28;100.00;99418.89;1656325;84;21557;-74
2022/10/23 07:14:38;;;;;;;21.30;17.65;;;;;;;10.34;100.00;99426.48;1673264;84;20999;-75
2022/10/23 07:17:04;;;;;;;24.75;20.62;;;;;;;10.43;100.00;99433.83;1641683;85;21001;-74
2022/10/23 07:19:33;;;;;;;25.45;20.10;;;;;;;10.46;100.00;99431.97;1675173;85;21077;-74
2022/10/23 07:22:07;;;;;;;22.62;17.73;;;;;;;10.47;100.00;99427.41;1677489;84;21084;-73
2022/10/23 07:24:37;;;;;;;25.08;20.37;;;;;;;10.47;100.00;99428.22;1669294;85;21429;-81
2022/10/23 07:27:04;;;;;;;25.20;19.02;;;;;;;10.45;100.00;99433.02;1673874;85;21015;-74
2022/10/23 07:29:33;;;;;;;17.65;14.98;;;;;;;10.43;100.00;99430.33;1680034;84;20986;-76
2022/10/23 07:32:00;;;;;;;26.20;21.50;;;;;;;10.42;100.00;99427.35;1670324;85;21110;-73
2022/10/23 07:34:40;;;;;;;22.67;18.45;;;;;;;10.38;100.00;99424.91;1660491;84;21357;-75
2022/10/23 07:37:08;;;;;;;20.02;18.02;;;;;;;10.43;100.00;99419.57;1659005;85;21685;-75
2022/10/23 07:39:35;;;;;;;25.92;19.20;;;;;;;10.46;100.00;99426.59;1680974;83;21554;-72
2022/10/23 07:42:11;;;;;;;24.32;19.37;;;;;;;10.50;100.00;99418.28;1657675;85;21089;-73
2022/10/23 07:44:43;;;;;;;24.07;19.15;;;;;;;10.56;100.00;99426.39;1650383;86;21105;-75
2022/10/23 07:47:11;;;;;;;20.27;18.10;;;;;;;10.56;100.00;99425.05;1654421;85;21156;-70
2022/10/23 07:49:39;;;;;;;26.23;19.12;;;;;;;10.51;100.00;99424.47;1669701;85;21482;-72
2022/10/23 07:52:06;;;;;;;31.85;21.57;;;;;;;10.53;100.00;99423.70;1664073;85;21111;-73
2022/10/23 07:54:35;;;;;;;25.90;21.73;;;;;;;10.54;100.00;99419.95;1645827;85;21096;-75
2022/10/23 07:57:10;;;;;;;24.67;20.60;;;;;;;10.57;100.00;99426.68;1665645;84;21668;-71
2022/10/23 07:59:45;;;;;;;22.58;18.62;;;;;;;10.60;100.00;99421.59;1656711;85;21497;-71
2022/10/23 08:02:16;;;;;;;24.82;20.65;;;;;;;10.62;100.00;99427.54;1683626;83;22040;-74
2022/10/23 08:04:48;;;;;;;27.27;21.35;;;;;;;10.61;100.00;99418.38;1638306;85;24675;-74
2022/10/23 08:07:32;;;;;;;21.45;19.02;;;;;;;10.64;100.00;99425.41;1673999;83;20963;-73
2022/10/23 08:10:02;;;;;;;22.45;20.00;;;;;;;10.72;100.00;99429.50;1683851;84;22245;-74
2022/10/23 08:12:29;;;;;;;28.42;18.80;;;;;;;10.76;100.00;99423.34;1649523;85;21066;-73
2022/10/23 08:14:56;;;;;;;24.72;19.87;;;;;;;10.78;100.00;99424.44;1666322;85;22296;-73
2022/10/23 08:17:26;;;;;;;22.58;19.75;;;;;;;10.78;100.00;99428.48;1671174;85;21162;-74
2022/10/23 08:20:06;;;;;;;28.10;21.00;;;;;;;10.79;100.00;99422.03;1663530;85;21087;-72
2022/10/23 08:22:37;;;;;;;;;;;;;;;10.81;100.00;99431.45;1659814;85;21013;-72
2022/10/23 08:25:08;;;;;;;20.70;18.05;;;;;;;10.84;100.00;99421.52;1665641;84;20170;-72
2022/10/23 08:27:40;;;;;;;21.97;19.07;;;;;;;10.86;100.00;99423.95;1671333;85;21225;-74
2022/10/23 08:30:11;;;;;;;21.37;18.52;;;;;;;10.89;100.00;99429.63;1671165;85;21059;-74
2022/10/23 08:32:40;;;;;;;20.68;18.45;;;;;;;10.94;100.00;99427.50;1656673;85;21106;-72
2022/10/23 08:35:10;;;;;;;22.30;18.55;;;;;;;10.99;100.00;99436.95;1668193;85;21113;-71
2022/10/23 08:37:40;;;;;;;22.02;18.87;;;;;;;11.02;100.00;99436.46;1656786;85;21004;-73
2022/10/23 13:03:10;;;;;;;4.95;4.55;;;;;;;11.60;100.00;99524.88;1835830;77;22602;-75
2022/10/23 13:05:36;;;;;;;5.78;3.72;;;;;;;11.59;100.00;99528.09;1788512;80;21566;-74
2022/10/23 13:08:03;;;;;;;5.10;3.92;;;;;;;11.64;100.00;99524.62;1769289;80;21000;-74
2022/10/23 13:10:37;;;;;;;4.67;4.25;;;;;;;11.69;100.00;99532.73;1775155;79;20968;-73
2022/10/23 13:13:06;;;;;;;4.12;3.75;;;;;;;11.73;100.00;99533.86;1763262;78;20999;-73
2022/10/23 13:15:42;;;;;;;4.95;4.55;;;;;;;11.78;100.00;99534.70;1793931;78;21590;-73
2022/10/23 13:18:13;;;;;;;5.15;4.50;;;;;;;11.84;100.00;99536.89;1787310;79;20966;-72
2022/10/23 13:20:57;;;;;;;5.42;4.92;;;;;;;11.91;100.00;99532.06;1786613;80;21576;-73
2022/10/23 13:23:30;;;;;;;4.08;3.72;;;;;;;11.95;100.00;99542.59;1776309;80;21006;-73
2022/10/23 13:26:00;;;;;;;8.90;4.23;;;;;;;11.99;100.00;99545.03;1740058;82;20980;-74
2022/10/23 13:28:31;;;;;;;5.28;4.75;;;;;;;12.02;100.00;99541.83;1724226;82;21039;-77
2022/10/23 13:31:15;;;;;;;4.30;3.95;;;;;;;12.02;100.00;99542.36;1709403;81;21075;-77
2022/10/23 13:33:52;;;;;;;4.10;3.72;;;;;;;12.02;100.00;99549.92;1735778;81;21176;-73
2022/10/23 13:36:22;;;;;;;3.72;3.42;;;;;;;12.05;100.00;99553.95;1782562;80;21062;-72
2022/10/23 13:39:13;;;;;;;4.83;3.92;;;;;;;12.04;100.00;99554.49;1782115;80;20908;-73
2022/10/23 13:41:43;;;;;;;4.55;3.65;;;;;;;12.03;100.00;99562.33;1773748;80;20940;-71
2022/10/23 13:44:15;;;;;;;4.08;3.77;;;;;;;12.04;100.00;99554.49;1743755;80;21097;-74
2022/10/23 13:46:42;;;;;;;10.18;4.83;;;;;;;12.04;100.00;99565.27;1748798;80;21107;-74
2022/10/23 13:49:10;;;;;;;4.05;3.67;;;;;;;12.00;100.00;99564.18;1735155;80;21033;-70
2022/10/23 13:51:48;;;;;;;4.92;3.92;;;;;;;11.99;100.00;99567.94;1729769;80;21050;-70
2022/10/23 13:54:26;;;;;;;4.40;4.05;;;;;;;11.99;100.00;99573.33;1689278;83;21084;-75
2022/10/23 13:56:55;;;;;;;5.33;4.17;;;;;;;11.96;100.00;99579.79;1717852;82;21053;-74
2022/10/23 13:59:24;;;;;;;4.25;3.85;;;;;;;11.93;100.00;99581.67;1730189;81;21535;-74
2022/10/23 14:01:50;;;;;;;4.37;3.67;;;;;;;11.88;100.00;99602.67;1688433;84;20972;-76
2022/10/23 14:04:18;;;;;;;5.37;3.58;;;;;;;11.85;100.00;99587.53;1742635;81;21066;-72
2022/10/23 14:06:45;;;;;;;3.83;3.55;;;;;;;11.83;100.00;99597.25;1747790;80;21015;-74
2022/10/23 14:09:16;;;;;;;3.85;3.55;;;;;;;11.77;100.00;99604.48;1758726;80;21099;-75
2022/10/23 14:11:44;;;;;;;7.15;4.15;;;;;;;11.75;100.00;99601.75;1749549;81;21114;-74
2022/10/23 14:14:10;;;;;;;7.28;4.75;;;;;;;11.71;100.00;99601.97;1745442;82;21536;-73
2022/10/23 14:16:38;;;;;;;4.40;4.00;;;;;;;11.65;100.00;99615.15;1741479;81;21595;-76
2022/10/23 14:19:07;;;;;;;4.58;4.22;;;;;;;11.56;100.00;99613.45;1714344;82;21049;-76
2022/10/23 14:21:35;;;;;;;4.37;3.98;;;;;;;11.53;100.00;99622.59;1714804;82;21019;-79
2022/10/23 14:24:02;;;;;;;10.20;5.75;;;;;;;11.49;100.00;99604.79;1744326;80;21295;-74
2022/10/23 14:26:31;;;;;;;5.92;5.05;;;;;;;11.48;100.00;99612.58;1741247;82;21046;-76
2022/10/23 14:28:58;;;;;;;5.17;4.78;;;;;;;11.43;100.00;99608.50;1741074;81;20995;-78
2022/10/23 14:31:25;;;;;;;5.17;4.78;;;;;;;11.42;100.00;99612.26;1742009;82;21018;-75
2022/10/23 14:33:57;;;;;;;4.30;4.00;;;;;;;11.38;100.00;99623.27;1747305;81;20923;-81
2022/10/23 14:36:24;;;;;;;4.58;4.12;;;;;;;11.33;100.00;99617.31;1750082;82;21058;-74
2022/10/23 14:38:56;;;;;;;4.78;4.10;;;;;;;11.29;100.00;99628.31;1753168;80;21028;-76
2022/10/23 14:41:24;;;;;;;5.28;4.50;;;;;;;11.25;100.00;99621.01;1750100;82;21013;-76
2022/10/23 14:43:53;;;;;;;4.65;4.25;;;;;;;11.23;100.00;99625.83;1705318;83;21047;-72
2022/10/23 14:46:22;;;;;;;5.28;4.78;;;;;;;11.22;100.00;99623.66;1736535;81;21081;-71
2022/10/23 14:48:49;;;;;;;8.45;4.67;;;;;;;11.22;100.00;99639.03;1697702;83;21828;-78
2022/10/23 14:51:21;;;;;;;4.53;4.10;;;;;;;11.20;100.00;99637.93;1742629;80;21030;-75
2022/10/23 14:53:47;;;;;;;5.70;4.60;;;;;;;11.19;100.00;99652.98;1750593;80;22277;-76
2022/10/23 14:56:15;;;;;;;4.62;4.22;;;;;;;11.19;100.00;99657.84;1744150;80;21035;-74
2022/10/23 14:58:43;;;;;;;4.78;4.42;;;;;;;11.20;100.00;99635.23;1760103;81;21027;-76
2022/10/23 15:01:10;;;;;;;5.12;4.75;;;;;;;11.20;100.00;99639.80;1750289;82;21108;-74
2022/10/23 15:03:36;;;;;;;6.60;4.95;;;;;;;11.20;100.00;99635.23;1742627;80;21532;-78
2022/10/23 15:06:04;;;;;;;4.58;4.17;;;;;;;11.19;100.00;99644.91;1734408;82;20967;-77
2022/10/23 15:08:32;;;;;;;5.90;5.28;;;;;;;11.14;100.00;99640.28;1678440;82;21019;-75
2022/10/23 15:11:00;;;;;;;6.40;5.50;;;;;;;11.14;100.00;99649.70;1737955;82;21070;-76
2022/10/23 15:13:29;;;;;;;8.78;5.10;;;;;;;11.12;100.00;99655.08;1745276;80;21153;-76
2022/10/23 15:16:03;;;;;;;7.05;5.00;;;;;;;11.13;100.00;99656.68;1744194;81;21486;-77
2022/10/23 15:18:31;;;;;;;5.35;4.85;;;;;;;11.14;100.00;99641.63;1766467;80;21618;-75
2022/10/23 15:20:58;;;;;;;7.65;6.20;;;;;;;11.18;100.00;99649.47;1769187;81;20963;-76
2022/10/23 15:23:26;;;;;;;6.90;5.50;;;;;;;11.19;100.00;99657.02;1678810;84;21060;-76
2022/10/23 15:25:58;;;;;;;9.95;5.55;;;;;;;11.16;100.00;99659.70;1702659;84;21283;-76
2022/10/23 15:28:26;;;;;;;5.70;5.12;;;;;;;11.14;100.00;99663.16;1706908;82;21009;-76
2022/10/23 15:30:52;;;;;;;6.90;5.70;;;;;;;11.12;100.00;99653.20;1770118;81;21018;-76
2022/10/23 15:33:22;;;;;;;8.33;5.83;;;;;;;11.11;100.00;99652.10;1735098;80;20972;-75
2022/10/23 15:35:49;;;;;;;8.48;5.53;;;;;;;11.10;100.00;99676.05;1734398;80;21385;-74
2022/10/23 15:38:19;;;;;;;5.58;5.10;;;;;;;11.10;100.00;99673.34;1742056;80;20948;-76
2022/10/23 15:40:46;;;;;;;7.53;5.42;;;;;;;11.11;100.00;99674.98;1714917;82;21043;-74
2022/10/23 15:43:13;;;;;;;8.40;6.67;;;;;;;11.11;100.00;99677.14;1735848;81;20998;-71
2022/10/23 15:45:42;;;;;;;9.63;6.35;;;;;;;11.11;100.00;99678.48;1734232;82;21098;-74
2022/10/23 15:48:08;;;;;;;6.78;5.70;;;;;;;11.12;100.00;99687.38;1757366;80;20984;-75
2022/10/23 15:50:37;;;;;;;6.22;5.30;;;;;;;11.14;100.00;99694.66;1771230;79;21837;-73
2022/10/23 15:53:04;;;;;;;5.50;5.00;;;;;;;11.13;100.00;99687.11;1761183;80;20971;-73
2022/10/23 15:55:32;;;;;;;7.40;5.95;;;;;;;11.13;100.00;99691.14;1739130;81;20995;-75
2022/10/23 15:58:03;;;;;;;7.35;6.05;;;;;;;11.15;100.00;99686.33;1722499;82;21011;-72
2022/10/23 16:00:34;;;;;;;5.97;5.47;;;;;;;11.16;100.00;99686.63;1756536;81;21028;-75
2022/10/23 16:02:58;;;;;;;9.75;6.35;;;;;;;11.17;100.00;99691.47;1755456;80;21070;-76